sensor_id;sensor_type;location;lat;lon;timestamp;temperature;humidity
45785;DHT22;31489;51.404;5.474;2023-02-12T00:00:05;12.30;69.30
45785;DHT22;31489;51.404;5.474;2023-02-12T00:02:31;12.20;69.40
45785;DHT22;31489;51.404;5.474;2023-02-12T00:04:57;12.30;69.00
45785;DHT22;31489;51.404;5.474;2023-02-12T00:07:22;12.30;68.60
45785;DHT22;31489;51.404;5.474;2023-02-12T00:09:48;12.20;68.80
45785;DHT22;31489;51.404;5.474;2023-02-12T00:12:14;12.20;68.60
45785;DHT22;31489;51.404;5.474;2023-02-12T00:14:40;12.20;68.70
45785;DHT22;31489;51.404;5.474;2023-02-12T00:17:06;12.30;68.90
45785;DHT22;31489;51.404;5.474;2023-02-12T00:19:31;12.20;68.50
45785;DHT22;31489;51.404;5.474;2023-02-12T00:21:57;12.30;68.60
45785;DHT22;31489;51.404;5.474;2023-02-12T00:24:23;12.20;68.70
45785;DHT22;31489;51.404;5.474;2023-02-12T00:26:48;12.20;68.70
45785;DHT22;31489;51.404;5.474;2023-02-12T00:29:15;12.20;68.70
45785;DHT22;31489;51.404;5.474;2023-02-12T00:31:41;12.20;68.70
45785;DHT22;31489;51.404;5.474;2023-02-12T00:34:06;12.20;68.90
45785;DHT22;31489;51.404;5.474;2023-02-12T00:36:34;12.20;68.90
45785;DHT22;31489;51.404;5.474;2023-02-12T00:38:59;12.20;68.80
45785;DHT22;31489;51.404;5.474;2023-02-12T00:41:26;12.20;68.40
45785;DHT22;31489;51.404;5.474;2023-02-12T00:43:51;12.20;68.70
45785;DHT22;31489;51.404;5.474;2023-02-12T00:46:17;12.20;68.70
45785;DHT22;31489;51.404;5.474;2023-02-12T00:48:43;12.20;68.80
45785;DHT22;31489;51.404;5.474;2023-02-12T00:51:09;12.20;68.70
45785;DHT22;31489;51.404;5.474;2023-02-12T00:53:34;12.20;68.90
45785;DHT22;31489;51.404;5.474;2023-02-12T00:56:01;12.20;68.80
45785;DHT22;31489;51.404;5.474;2023-02-12T00:58:27;12.20;68.80
45785;DHT22;31489;51.404;5.474;2023-02-12T01:00:54;12.20;68.80
45785;DHT22;31489;51.404;5.474;2023-02-12T01:03:20;12.20;68.80
45785;DHT22;31489;51.404;5.474;2023-02-12T01:05:46;12.20;68.90
45785;DHT22;31489;51.404;5.474;2023-02-12T01:08:13;12.20;69.10
45785;DHT22;31489;51.404;5.474;2023-02-12T01:10:39;12.20;69.00
45785;DHT22;31489;51.404;5.474;2023-02-12T01:13:05;12.20;69.50
45785;DHT22;31489;51.404;5.474;2023-02-12T01:15:31;12.20;69.00
45785;DHT22;31489;51.404;5.474;2023-02-12T01:17:56;12.20;69.10
45785;DHT22;31489;51.404;5.474;2023-02-12T01:20:23;12.20;69.00
45785;DHT22;31489;51.404;5.474;2023-02-12T01:22:49;12.20;68.80
45785;DHT22;31489;51.404;5.474;2023-02-12T01:25:18;12.20;68.90
45785;DHT22;31489;51.404;5.474;2023-02-12T01:27:43;12.20;68.80
45785;DHT22;31489;51.404;5.474;2023-02-12T01:30:11;12.10;68.80
45785;DHT22;31489;51.404;5.474;2023-02-12T01:32:38;12.10;69.00
45785;DHT22;31489;51.404;5.474;2023-02-12T01:35:04;12.10;68.90
45785;DHT22;31489;51.404;5.474;2023-02-12T01:37:30;12.10;68.90
45785;DHT22;31489;51.404;5.474;2023-02-12T01:39:55;12.10;68.90
45785;DHT22;31489;51.404;5.474;2023-02-12T01:42:21;12.10;68.80
45785;DHT22;31489;51.404;5.474;2023-02-12T01:45:50;12.10;68.80
45785;DHT22;31489;51.404;5.474;2023-02-12T01:47:55;12.10;68.90
45785;DHT22;31489;51.404;5.474;2023-02-12T01:50:21;12.10;68.90
45785;DHT22;31489;51.404;5.474;2023-02-12T01:52:50;12.10;69.00
45785;DHT22;31489;51.404;5.474;2023-02-12T01:55:18;12.10;68.90
45785;DHT22;31489;51.404;5.474;2023-02-12T01:57:46;12.10;69.00
45785;DHT22;31489;51.404;5.474;2023-02-12T02:00:19;12.10;69.00
45785;DHT22;31489;51.404;5.474;2023-02-12T02:02:53;12.10;69.00
45785;DHT22;31489;51.404;5.474;2023-02-12T02:05:42;12.10;69.00
45785;DHT22;31489;51.404;5.474;2023-02-12T02:08:09;12.00;69.00
45785;DHT22;31489;51.404;5.474;2023-02-12T02:10:35;12.00;69.10
45785;DHT22;31489;51.404;5.474;2023-02-12T02:13:01;12.00;69.10
45785;DHT22;31489;51.404;5.474;2023-02-12T02:15:48;12.00;69.10
45785;DHT22;31489;51.404;5.474;2023-02-12T02:18:41;12.10;69.00
45785;DHT22;31489;51.404;5.474;2023-02-12T02:32:07;12.00;69.30
45785;DHT22;31489;51.404;5.474;2023-02-12T02:34:38;12.00;69.20
45785;DHT22;31489;51.404;5.474;2023-02-12T02:37:28;12.00;69.20
45785;DHT22;31489;51.404;5.474;2023-02-12T02:40:10;12.00;69.20
45785;DHT22;31489;51.404;5.474;2023-02-12T02:42:58;12.00;69.20
45785;DHT22;31489;51.404;5.474;2023-02-12T02:45:42;12.00;69.40
45785;DHT22;31489;51.404;5.474;2023-02-12T02:48:23;12.00;69.20
45785;DHT22;31489;51.404;5.474;2023-02-12T02:50:58;12.00;69.30
45785;DHT22;31489;51.404;5.474;2023-02-12T02:53:30;12.00;69.40
45785;DHT22;31489;51.404;5.474;2023-02-12T02:55:59;12.00;69.50
45785;DHT22;31489;51.404;5.474;2023-02-12T03:01:37;11.90;69.50
45785;DHT22;31489;51.404;5.474;2023-02-12T03:04:11;12.00;69.40
45785;DHT22;31489;51.404;5.474;2023-02-12T03:06:57;11.90;69.50
45785;DHT22;31489;51.404;5.474;2023-02-12T03:09:35;12.00;69.50
45785;DHT22;31489;51.404;5.474;2023-02-12T03:12:24;11.90;69.40
45785;DHT22;31489;51.404;5.474;2023-02-12T03:17:36;11.90;69.20
45785;DHT22;31489;51.404;5.474;2023-02-12T03:20:19;11.90;69.40
45785;DHT22;31489;51.404;5.474;2023-02-12T03:22:51;11.90;69.40
45785;DHT22;31489;51.404;5.474;2023-02-12T03:25:27;11.90;69.40
45785;DHT22;31489;51.404;5.474;2023-02-12T03:28:16;11.90;69.50
45785;DHT22;31489;51.404;5.474;2023-02-12T03:30:47;11.90;69.70
45785;DHT22;31489;51.404;5.474;2023-02-12T03:33:29;11.90;69.50
45785;DHT22;31489;51.404;5.474;2023-02-12T03:36:00;11.90;69.50
45785;DHT22;31489;51.404;5.474;2023-02-12T03:38:40;12.00;69.50
45785;DHT22;31489;51.404;5.474;2023-02-12T03:41:15;11.90;69.60
45785;DHT22;31489;51.404;5.474;2023-02-12T03:43:53;11.90;69.60
45785;DHT22;31489;51.404;5.474;2023-02-12T03:46:36;11.90;69.60
45785;DHT22;31489;51.404;5.474;2023-02-12T03:51:44;11.90;69.60
45785;DHT22;31489;51.404;5.474;2023-02-12T03:54:11;11.90;69.50
45785;DHT22;31489;51.404;5.474;2023-02-12T03:57:01;11.80;69.50
45785;DHT22;31489;51.404;5.474;2023-02-12T03:59:28;11.90;69.80
45785;DHT22;31489;51.404;5.474;2023-02-12T04:01:57;11.90;69.70
45785;DHT22;31489;51.404;5.474;2023-02-12T04:04:24;11.80;69.80
45785;DHT22;31489;51.404;5.474;2023-02-12T04:06:53;11.90;69.90
45785;DHT22;31489;51.404;5.474;2023-02-12T04:09:21;11.80;69.80
45785;DHT22;31489;51.404;5.474;2023-02-12T04:12:24;11.80;69.80
45785;DHT22;31489;51.404;5.474;2023-02-12T04:15:28;11.80;69.80
45785;DHT22;31489;51.404;5.474;2023-02-12T04:21:01;11.80;70.60
45785;DHT22;31489;51.404;5.474;2023-02-12T04:26:25;11.80;70.10
45785;DHT22;31489;51.404;5.474;2023-02-12T04:31:38;11.80;70.10
45785;DHT22;31489;51.404;5.474;2023-02-12T04:34:09;11.80;70.00
45785;DHT22;31489;51.404;5.474;2023-02-12T04:36:44;11.80;70.00
45785;DHT22;31489;51.404;5.474;2023-02-12T04:39:16;11.80;70.00
45785;DHT22;31489;51.404;5.474;2023-02-12T04:41:44;11.80;70.10
45785;DHT22;31489;51.404;5.474;2023-02-12T04:44:25;11.80;70.00
45785;DHT22;31489;51.404;5.474;2023-02-12T04:46:51;11.80;70.10
45785;DHT22;31489;51.404;5.474;2023-02-12T04:49:19;11.80;70.10
45785;DHT22;31489;51.404;5.474;2023-02-12T04:51:46;11.80;70.10
45785;DHT22;31489;51.404;5.474;2023-02-12T04:54:13;11.80;70.10
45785;DHT22;31489;51.404;5.474;2023-02-12T04:56:38;11.80;70.20
45785;DHT22;31489;51.404;5.474;2023-02-12T04:59:04;11.80;70.20
45785;DHT22;31489;51.404;5.474;2023-02-12T05:01:32;11.80;70.20
45785;DHT22;31489;51.404;5.474;2023-02-12T05:03:59;11.80;70.10
45785;DHT22;31489;51.404;5.474;2023-02-12T05:06:25;11.90;70.20
45785;DHT22;31489;51.404;5.474;2023-02-12T05:08:53;11.80;70.10
45785;DHT22;31489;51.404;5.474;2023-02-12T05:11:19;11.80;70.00
45785;DHT22;31489;51.404;5.474;2023-02-12T05:13:49;11.80;70.00
45785;DHT22;31489;51.404;5.474;2023-02-12T05:16:15;11.80;69.80
45785;DHT22;31489;51.404;5.474;2023-02-12T05:18:41;11.80;69.80
45785;DHT22;31489;51.404;5.474;2023-02-12T05:21:07;11.80;69.80
45785;DHT22;31489;51.404;5.474;2023-02-12T05:23:35;11.80;69.90
45785;DHT22;31489;51.404;5.474;2023-02-12T05:26:03;11.80;70.00
45785;DHT22;31489;51.404;5.474;2023-02-12T05:28:29;11.80;70.00
45785;DHT22;31489;51.404;5.474;2023-02-12T05:30:59;11.80;70.10
45785;DHT22;31489;51.404;5.474;2023-02-12T05:33:26;11.80;70.20
45785;DHT22;31489;51.404;5.474;2023-02-12T05:35:51;11.80;70.00
45785;DHT22;31489;51.404;5.474;2023-02-12T05:38:17;11.80;70.00
45785;DHT22;31489;51.404;5.474;2023-02-12T05:40:45;11.80;70.00
45785;DHT22;31489;51.404;5.474;2023-02-12T05:43:11;11.70;70.10
45785;DHT22;31489;51.404;5.474;2023-02-12T05:45:37;11.80;70.10
45785;DHT22;31489;51.404;5.474;2023-02-12T05:48:06;11.70;70.10
45785;DHT22;31489;51.404;5.474;2023-02-12T05:50:32;11.80;70.10
45785;DHT22;31489;51.404;5.474;2023-02-12T05:53:01;11.80;70.20
45785;DHT22;31489;51.404;5.474;2023-02-12T05:55:27;11.80;70.20
45785;DHT22;31489;51.404;5.474;2023-02-12T05:57:53;11.80;70.20
45785;DHT22;31489;51.404;5.474;2023-02-12T06:00:19;11.80;70.10
45785;DHT22;31489;51.404;5.474;2023-02-12T06:02:45;11.80;70.10
45785;DHT22;31489;51.404;5.474;2023-02-12T06:05:10;11.80;70.10
45785;DHT22;31489;51.404;5.474;2023-02-12T06:07:36;11.70;70.00
45785;DHT22;31489;51.404;5.474;2023-02-12T06:10:02;11.80;69.80
45785;DHT22;31489;51.404;5.474;2023-02-12T06:12:28;11.80;69.90
45785;DHT22;31489;51.404;5.474;2023-02-12T06:14:54;11.70;69.90
45785;DHT22;31489;51.404;5.474;2023-02-12T06:17:19;11.70;69.90
45785;DHT22;31489;51.404;5.474;2023-02-12T06:19:45;11.70;69.90
45785;DHT22;31489;51.404;5.474;2023-02-12T06:22:11;11.80;70.00
45785;DHT22;31489;51.404;5.474;2023-02-12T06:24:36;11.70;70.00
45785;DHT22;31489;51.404;5.474;2023-02-12T06:27:02;11.70;70.00
45785;DHT22;31489;51.404;5.474;2023-02-12T06:29:28;11.70;70.00
45785;DHT22;31489;51.404;5.474;2023-02-12T06:31:54;11.70;70.00
45785;DHT22;31489;51.404;5.474;2023-02-12T06:34:19;11.70;69.90
45785;DHT22;31489;51.404;5.474;2023-02-12T06:36:46;11.70;69.80
45785;DHT22;31489;51.404;5.474;2023-02-12T06:39:14;11.70;69.80
45785;DHT22;31489;51.404;5.474;2023-02-12T06:41:40;11.70;69.90
45785;DHT22;31489;51.404;5.474;2023-02-12T06:44:09;11.70;69.80
45785;DHT22;31489;51.404;5.474;2023-02-12T06:46:38;11.70;69.90
45785;DHT22;31489;51.404;5.474;2023-02-12T06:49:03;11.70;69.90
45785;DHT22;31489;51.404;5.474;2023-02-12T06:51:29;11.70;69.90
45785;DHT22;31489;51.404;5.474;2023-02-12T06:53:58;11.70;69.90
45785;DHT22;31489;51.404;5.474;2023-02-12T06:56:25;11.70;69.80
45785;DHT22;31489;51.404;5.474;2023-02-12T06:58:55;11.70;69.80
45785;DHT22;31489;51.404;5.474;2023-02-12T07:01:24;11.70;70.00
45785;DHT22;31489;51.404;5.474;2023-02-12T07:03:59;11.70;69.90
45785;DHT22;31489;51.404;5.474;2023-02-12T07:06:25;11.70;69.90
45785;DHT22;31489;51.404;5.474;2023-02-12T07:08:51;11.70;69.80
45785;DHT22;31489;51.404;5.474;2023-02-12T07:11:22;11.70;69.80
45785;DHT22;31489;51.404;5.474;2023-02-12T07:13:48;11.70;69.90
45785;DHT22;31489;51.404;5.474;2023-02-12T07:16:15;11.80;70.00
45785;DHT22;31489;51.404;5.474;2023-02-12T07:18:42;11.70;69.80
45785;DHT22;31489;51.404;5.474;2023-02-12T07:21:09;11.70;69.80
45785;DHT22;31489;51.404;5.474;2023-02-12T07:23:35;11.70;69.80
45785;DHT22;31489;51.404;5.474;2023-02-12T07:26:04;11.70;70.00
45785;DHT22;31489;51.404;5.474;2023-02-12T07:28:31;11.70;70.10
45785;DHT22;31489;51.404;5.474;2023-02-12T07:30:58;11.70;70.00
45785;DHT22;31489;51.404;5.474;2023-02-12T07:33:24;11.70;70.10
45785;DHT22;31489;51.404;5.474;2023-02-12T07:35:50;11.70;70.00
45785;DHT22;31489;51.404;5.474;2023-02-12T07:38:16;11.70;70.00
45785;DHT22;31489;51.404;5.474;2023-02-12T07:40:42;11.70;70.10
45785;DHT22;31489;51.404;5.474;2023-02-12T07:43:07;11.70;70.10
45785;DHT22;31489;51.404;5.474;2023-02-12T07:45:33;11.70;70.00
45785;DHT22;31489;51.404;5.474;2023-02-12T07:47:59;11.70;70.00
45785;DHT22;31489;51.404;5.474;2023-02-12T07:50:24;11.70;69.80
45785;DHT22;31489;51.404;5.474;2023-02-12T07:52:50;11.70;70.00
45785;DHT22;31489;51.404;5.474;2023-02-12T07:55:16;11.70;70.00
45785;DHT22;31489;51.404;5.474;2023-02-12T07:57:42;11.70;70.10
45785;DHT22;31489;51.404;5.474;2023-02-12T08:00:08;11.70;70.10
45785;DHT22;31489;51.404;5.474;2023-02-12T08:02:34;11.70;69.70
45785;DHT22;31489;51.404;5.474;2023-02-12T08:05:00;11.70;69.90
45785;DHT22;31489;51.404;5.474;2023-02-12T08:07:25;11.70;69.80
45785;DHT22;31489;51.404;5.474;2023-02-12T08:09:54;11.70;69.60
45785;DHT22;31489;51.404;5.474;2023-02-12T08:12:20;11.70;69.10
45785;DHT22;31489;51.404;5.474;2023-02-12T08:14:45;11.80;69.40
45785;DHT22;31489;51.404;5.474;2023-02-12T08:17:11;11.80;69.50
45785;DHT22;31489;51.404;5.474;2023-02-12T08:19:37;11.80;69.50
45785;DHT22;31489;51.404;5.474;2023-02-12T08:22:02;11.80;69.50
45785;DHT22;31489;51.404;5.474;2023-02-12T08:24:29;11.80;69.70
45785;DHT22;31489;51.404;5.474;2023-02-12T08:26:55;11.80;69.30
45785;DHT22;31489;51.404;5.474;2023-02-12T08:29:24;11.80;69.30
45785;DHT22;31489;51.404;5.474;2023-02-12T08:31:55;11.90;69.10
45785;DHT22;31489;51.404;5.474;2023-02-12T08:34:24;11.90;69.00
45785;DHT22;31489;51.404;5.474;2023-02-12T08:36:51;11.90;69.10
45785;DHT22;31489;51.404;5.474;2023-02-12T08:39:18;11.90;69.20
45785;DHT22;31489;51.404;5.474;2023-02-12T08:41:45;11.90;69.50
45785;DHT22;31489;51.404;5.474;2023-02-12T08:44:12;11.90;69.70
45785;DHT22;31489;51.404;5.474;2023-02-12T08:46:41;11.90;69.50
45785;DHT22;31489;51.404;5.474;2023-02-12T08:49:11;11.90;69.70
45785;DHT22;31489;51.404;5.474;2023-02-12T08:51:40;11.90;69.50
45785;DHT22;31489;51.404;5.474;2023-02-12T08:54:15;12.00;69.40
45785;DHT22;31489;51.404;5.474;2023-02-12T08:56:41;12.00;69.10
45785;DHT22;31489;51.404;5.474;2023-02-12T08:59:09;12.00;69.20
45785;DHT22;31489;51.404;5.474;2023-02-12T09:01:39;12.00;69.50
45785;DHT22;31489;51.404;5.474;2023-02-12T09:04:20;12.10;69.70
45785;DHT22;31489;51.404;5.474;2023-02-12T09:06:51;12.10;69.80
45785;DHT22;31489;51.404;5.474;2023-02-12T09:09:17;12.10;69.60
45785;DHT22;31489;51.404;5.474;2023-02-12T09:11:44;12.10;69.50
45785;DHT22;31489;51.404;5.474;2023-02-12T09:14:12;12.10;69.60
45785;DHT22;31489;51.404;5.474;2023-02-12T09:16:40;12.20;69.60
45785;DHT22;31489;51.404;5.474;2023-02-12T09:19:12;12.20;69.60
45785;DHT22;31489;51.404;5.474;2023-02-12T09:21:38;12.20;69.60
45785;DHT22;31489;51.404;5.474;2023-02-12T09:24:07;12.30;69.50
45785;DHT22;31489;51.404;5.474;2023-02-12T09:26:32;12.30;69.60
45785;DHT22;31489;51.404;5.474;2023-02-12T09:29:01;12.30;69.70
45785;DHT22;31489;51.404;5.474;2023-02-12T09:31:28;12.30;69.70
45785;DHT22;31489;51.404;5.474;2023-02-12T09:33:59;12.30;70.00
45785;DHT22;31489;51.404;5.474;2023-02-12T09:36:25;12.40;69.30
45785;DHT22;31489;51.404;5.474;2023-02-12T09:38:54;12.40;69.20
45785;DHT22;31489;51.404;5.474;2023-02-12T09:44:30;12.40;69.90
45785;DHT22;31489;51.404;5.474;2023-02-12T09:52:25;12.50;69.00
45785;DHT22;31489;51.404;5.474;2023-02-12T09:54:52;12.50;68.90
45785;DHT22;31489;51.404;5.474;2023-02-12T09:57:34;12.50;69.00
45785;DHT22;31489;51.404;5.474;2023-02-12T10:02:44;12.60;68.40
45785;DHT22;31489;51.404;5.474;2023-02-12T10:08:39;12.60;68.40
45785;DHT22;31489;51.404;5.474;2023-02-12T10:19:44;12.80;68.10
45785;DHT22;31489;51.404;5.474;2023-02-12T10:28:40;12.80;68.00
45785;DHT22;31489;51.404;5.474;2023-02-12T10:31:20;12.80;68.50
45785;DHT22;31489;51.404;5.474;2023-02-12T10:33:49;12.90;67.90
45785;DHT22;31489;51.404;5.474;2023-02-12T10:36:44;12.90;67.70
45785;DHT22;31489;51.404;5.474;2023-02-12T10:41:53;12.90;67.80
45785;DHT22;31489;51.404;5.474;2023-02-12T10:44:22;12.90;67.60
45785;DHT22;31489;51.404;5.474;2023-02-12T10:46:48;12.90;67.70
45785;DHT22;31489;51.404;5.474;2023-02-12T10:49:15;13.00;67.80
45785;DHT22;31489;51.404;5.474;2023-02-12T10:51:47;13.00;68.00
45785;DHT22;31489;51.404;5.474;2023-02-12T10:54:40;13.00;67.80
45785;DHT22;31489;51.404;5.474;2023-02-12T10:59:42;13.00;67.10
45785;DHT22;31489;51.404;5.474;2023-02-12T11:02:23;13.00;67.10
45785;DHT22;31489;51.404;5.474;2023-02-12T11:04:50;13.10;66.50
45785;DHT22;31489;51.404;5.474;2023-02-12T11:07:16;13.10;66.70
45785;DHT22;31489;51.404;5.474;2023-02-12T11:09:44;13.10;66.80
45785;DHT22;31489;51.404;5.474;2023-02-12T11:12:26;13.10;66.60
45785;DHT22;31489;51.404;5.474;2023-02-12T11:14:59;13.10;66.00
45785;DHT22;31489;51.404;5.474;2023-02-12T11:17:37;13.10;66.40
45785;DHT22;31489;51.404;5.474;2023-02-12T11:22:58;13.10;66.00
45785;DHT22;31489;51.404;5.474;2023-02-12T11:25:27;13.10;65.70
45785;DHT22;31489;51.404;5.474;2023-02-12T11:28:16;13.10;65.60
45785;DHT22;31489;51.404;5.474;2023-02-12T11:33:32;13.10;65.70
45785;DHT22;31489;51.404;5.474;2023-02-12T11:36:06;13.20;65.80
45785;DHT22;31489;51.404;5.474;2023-02-12T11:38:46;13.20;65.90
45785;DHT22;31489;51.404;5.474;2023-02-12T11:41:37;13.20;66.20
45785;DHT22;31489;51.404;5.474;2023-02-12T11:44:12;13.20;66.30
45785;DHT22;31489;51.404;5.474;2023-02-12T11:46:48;13.20;66.00
45785;DHT22;31489;51.404;5.474;2023-02-12T11:49:22;13.30;66.30
45785;DHT22;31489;51.404;5.474;2023-02-12T11:51:48;13.30;65.50
45785;DHT22;31489;51.404;5.474;2023-02-12T11:54:30;13.30;65.50
45785;DHT22;31489;51.404;5.474;2023-02-12T11:56:58;13.30;65.40
45785;DHT22;31489;51.404;5.474;2023-02-12T11:59:36;13.40;66.00
45785;DHT22;31489;51.404;5.474;2023-02-12T12:02:23;13.30;65.70
45785;DHT22;31489;51.404;5.474;2023-02-12T12:04:53;13.40;66.60
45785;DHT22;31489;51.404;5.474;2023-02-12T12:07:30;13.40;65.60
45785;DHT22;31489;51.404;5.474;2023-02-12T12:10:16;13.50;64.90
45785;DHT22;31489;51.404;5.474;2023-02-12T12:12:48;13.40;64.80
45785;DHT22;31489;51.404;5.474;2023-02-12T12:15:31;13.50;65.50
45785;DHT22;31489;51.404;5.474;2023-02-12T12:21:27;13.50;65.70
45785;DHT22;31489;51.404;5.474;2023-02-12T12:26:34;13.50;65.50
45785;DHT22;31489;51.404;5.474;2023-02-12T12:29:16;13.50;65.60
45785;DHT22;31489;51.404;5.474;2023-02-12T12:31:48;13.50;65.80
45785;DHT22;31489;51.404;5.474;2023-02-12T12:34:21;13.60;65.10
45785;DHT22;31489;51.404;5.474;2023-02-12T12:39:52;13.60;65.00
45785;DHT22;31489;51.404;5.474;2023-02-12T13:15:53;13.70;64.50
45785;DHT22;31489;51.404;5.474;2023-02-12T13:18:41;13.70;63.60
45785;DHT22;31489;51.404;5.474;2023-02-12T13:21:54;13.70;64.10
45785;DHT22;31489;51.404;5.474;2023-02-12T13:24:18;13.70;64.30
45785;DHT22;31489;51.404;5.474;2023-02-12T13:26:56;13.70;64.60
45785;DHT22;31489;51.404;5.474;2023-02-12T13:29:33;13.70;64.30
45785;DHT22;31489;51.404;5.474;2023-02-12T13:34:46;13.70;64.00
45785;DHT22;31489;51.404;5.474;2023-02-12T13:37:35;13.70;64.20
45785;DHT22;31489;51.404;5.474;2023-02-12T13:40:07;13.70;63.90
45785;DHT22;31489;51.404;5.474;2023-02-12T13:43:10;13.70;64.40
45785;DHT22;31489;51.404;5.474;2023-02-12T13:46:11;13.70;64.80
45785;DHT22;31489;51.404;5.474;2023-02-12T13:49:08;13.70;63.80
45785;DHT22;31489;51.404;5.474;2023-02-12T13:56:51;13.70;64.20
45785;DHT22;31489;51.404;5.474;2023-02-12T14:04:53;13.70;64.20
45785;DHT22;31489;51.404;5.474;2023-02-12T14:07:20;13.70;64.60
45785;DHT22;31489;51.404;5.474;2023-02-12T14:15:10;13.70;64.00
45785;DHT22;31489;51.404;5.474;2023-02-12T14:17:40;13.70;64.30
45785;DHT22;31489;51.404;5.474;2023-02-12T14:20:23;13.80;64.50
45785;DHT22;31489;51.404;5.474;2023-02-12T14:27:52;13.80;64.60
45785;DHT22;31489;51.404;5.474;2023-02-12T14:33:21;13.70;64.30
45785;DHT22;31489;51.404;5.474;2023-02-12T14:35:48;13.70;64.30
45785;DHT22;31489;51.404;5.474;2023-02-12T14:38:55;13.80;64.60
45785;DHT22;31489;51.404;5.474;2023-02-12T14:41:24;13.80;64.50
45785;DHT22;31489;51.404;5.474;2023-02-12T14:46:48;13.80;64.20
45785;DHT22;31489;51.404;5.474;2023-02-12T14:49:32;13.80;64.50
45785;DHT22;31489;51.404;5.474;2023-02-12T14:55:01;13.80;64.20
45785;DHT22;31489;51.404;5.474;2023-02-12T14:57:37;13.70;64.20
45785;DHT22;31489;51.404;5.474;2023-02-12T15:00:19;13.70;64.20
45785;DHT22;31489;51.404;5.474;2023-02-12T15:02:52;13.80;64.10
45785;DHT22;31489;51.404;5.474;2023-02-12T15:05:36;13.70;64.20
45785;DHT22;31489;51.404;5.474;2023-02-12T15:13:48;13.70;64.30
45785;DHT22;31489;51.404;5.474;2023-02-12T15:19:18;13.70;64.30
45785;DHT22;31489;51.404;5.474;2023-02-12T15:21:45;13.70;64.40
45785;DHT22;31489;51.404;5.474;2023-02-12T15:24:13;13.70;64.50
45785;DHT22;31489;51.404;5.474;2023-02-12T15:26:50;13.70;64.40
45785;DHT22;31489;51.404;5.474;2023-02-12T15:29:38;13.70;64.30
45785;DHT22;31489;51.404;5.474;2023-02-12T15:32:06;13.70;64.20
45785;DHT22;31489;51.404;5.474;2023-02-12T15:34:36;13.70;64.30
45785;DHT22;31489;51.404;5.474;2023-02-12T15:37:04;13.70;64.40
45785;DHT22;31489;51.404;5.474;2023-02-12T15:39:43;13.70;64.90
45785;DHT22;31489;51.404;5.474;2023-02-12T15:42:35;13.70;63.80
45785;DHT22;31489;51.404;5.474;2023-02-12T15:47:44;13.70;63.80
45785;DHT22;31489;51.404;5.474;2023-02-12T15:50:15;13.70;64.10
45785;DHT22;31489;51.404;5.474;2023-02-12T15:52:43;13.70;64.20
45785;DHT22;31489;51.404;5.474;2023-02-12T15:55:18;13.60;63.90
45785;DHT22;31489;51.404;5.474;2023-02-12T15:57:52;13.60;64.10
45785;DHT22;31489;51.404;5.474;2023-02-12T16:00:36;13.70;64.20
45785;DHT22;31489;51.404;5.474;2023-02-12T16:03:04;13.60;64.30
45785;DHT22;31489;51.404;5.474;2023-02-12T16:05:29;13.60;64.30
45785;DHT22;31489;51.404;5.474;2023-02-12T16:07:56;13.60;64.20
45785;DHT22;31489;51.404;5.474;2023-02-12T16:10:22;13.60;64.30
45785;DHT22;31489;51.404;5.474;2023-02-12T16:12:49;13.60;64.50
45785;DHT22;31489;51.404;5.474;2023-02-12T16:15:29;13.60;64.40
45785;DHT22;31489;51.404;5.474;2023-02-12T16:17:55;13.60;64.60
45785;DHT22;31489;51.404;5.474;2023-02-12T16:20:25;13.60;64.40
45785;DHT22;31489;51.404;5.474;2023-02-12T16:22:52;13.60;64.40
45785;DHT22;31489;51.404;5.474;2023-02-12T16:25:25;13.60;64.40
45785;DHT22;31489;51.404;5.474;2023-02-12T16:28:06;13.60;64.30
45785;DHT22;31489;51.404;5.474;2023-02-12T16:30:35;13.60;64.50
45785;DHT22;31489;51.404;5.474;2023-02-12T16:33:47;13.50;64.30
45785;DHT22;31489;51.404;5.474;2023-02-12T16:36:27;13.60;64.50
45785;DHT22;31489;51.404;5.474;2023-02-12T16:39:00;13.50;64.60
45785;DHT22;31489;51.404;5.474;2023-02-12T16:41:50;13.50;64.60
45785;DHT22;31489;51.404;5.474;2023-02-12T16:46:48;13.50;64.50
45785;DHT22;31489;51.404;5.474;2023-02-12T16:49:16;13.50;64.50
45785;DHT22;31489;51.404;5.474;2023-02-12T16:51:43;13.50;64.60
45785;DHT22;31489;51.404;5.474;2023-02-12T16:54:29;13.50;64.60
45785;DHT22;31489;51.404;5.474;2023-02-12T16:56:57;13.50;65.20
45785;DHT22;31489;51.404;5.474;2023-02-12T16:59:23;13.50;64.80
45785;DHT22;31489;51.404;5.474;2023-02-12T17:02:15;13.50;64.70
45785;DHT22;31489;51.404;5.474;2023-02-12T17:04:41;13.50;64.60
45785;DHT22;31489;51.404;5.474;2023-02-12T17:07:19;13.50;64.60
45785;DHT22;31489;51.404;5.474;2023-02-12T17:09:45;13.40;64.70
45785;DHT22;31489;51.404;5.474;2023-02-12T17:12:11;13.40;64.80
45785;DHT22;31489;51.404;5.474;2023-02-12T17:14:36;13.40;64.90
45785;DHT22;31489;51.404;5.474;2023-02-12T17:17:02;13.40;64.90
45785;DHT22;31489;51.404;5.474;2023-02-12T17:19:57;13.40;65.00
45785;DHT22;31489;51.404;5.474;2023-02-12T17:22:25;13.40;64.90
45785;DHT22;31489;51.404;5.474;2023-02-12T17:24:54;13.40;64.90
45785;DHT22;31489;51.404;5.474;2023-02-12T17:27:20;13.40;65.00
45785;DHT22;31489;51.404;5.474;2023-02-12T17:29:48;13.40;65.10
45785;DHT22;31489;51.404;5.474;2023-02-12T17:32:14;13.40;65.10
45785;DHT22;31489;51.404;5.474;2023-02-12T17:34:40;13.40;65.10
45785;DHT22;31489;51.404;5.474;2023-02-12T17:37:06;13.40;65.20
45785;DHT22;31489;51.404;5.474;2023-02-12T17:39:31;13.40;65.20
45785;DHT22;31489;51.404;5.474;2023-02-12T17:41:57;13.30;65.20
45785;DHT22;31489;51.404;5.474;2023-02-12T17:44:25;13.30;65.20
45785;DHT22;31489;51.404;5.474;2023-02-12T17:46:51;13.40;65.30
45785;DHT22;31489;51.404;5.474;2023-02-12T17:49:18;13.30;65.30
45785;DHT22;31489;51.404;5.474;2023-02-12T17:51:43;13.30;65.30
45785;DHT22;31489;51.404;5.474;2023-02-12T17:54:09;13.30;65.30
45785;DHT22;31489;51.404;5.474;2023-02-12T17:56:35;13.30;65.20
45785;DHT22;31489;51.404;5.474;2023-02-12T17:59:01;13.30;65.30
45785;DHT22;31489;51.404;5.474;2023-02-12T18:01:26;13.30;65.40
45785;DHT22;31489;51.404;5.474;2023-02-12T18:04:05;13.30;65.50
45785;DHT22;31489;51.404;5.474;2023-02-12T18:06:31;13.30;65.50
45785;DHT22;31489;51.404;5.474;2023-02-12T18:08:58;13.30;65.60
45785;DHT22;31489;51.404;5.474;2023-02-12T18:11:24;13.30;65.60
45785;DHT22;31489;51.404;5.474;2023-02-12T18:13:54;13.30;65.50
45785;DHT22;31489;51.404;5.474;2023-02-12T18:16:25;13.30;65.60
45785;DHT22;31489;51.404;5.474;2023-02-12T18:18:51;13.30;65.60
45785;DHT22;31489;51.404;5.474;2023-02-12T18:21:19;13.30;65.60
45785;DHT22;31489;51.404;5.474;2023-02-12T18:23:45;13.30;65.60
45785;DHT22;31489;51.404;5.474;2023-02-12T18:26:16;13.30;65.60
45785;DHT22;31489;51.404;5.474;2023-02-12T18:28:42;13.30;65.50
45785;DHT22;31489;51.404;5.474;2023-02-12T18:31:09;13.30;65.60